Time;durP1;ratioP1;P1;durP2;ratioP2;P2;SDS_P1;SDS_P2;PMS_P1;PMS_P2;Temp;Humidity;BMP_temperature;BMP_pressure;BME280_temperature;BME280_humidity;BME280_pressure;Samples;Min_cycle;Max_cycle;Signal;HPM_P1;HPM_P2
2023/09/07 00:01:54;;;;;;;85.72;36.45;;;11.40;99.90;;;;;;5041044;28;20021;-79
2023/09/07 00:04:22;;;;;;;73.18;33.33;;;11.40;99.90;;;;;;5035598;28;20080;-79
2023/09/07 00:06:49;;;;;;;57.88;26.95;;;11.40;99.90;;;;;;5037967;28;20036;-79
2023/09/07 00:09:18;;;;;;;44.85;23.20;;;11.40;99.90;;;;;;5025615;28;20025;-76
2023/09/07 00:11:44;;;;;;;42.53;19.42;;;11.40;99.90;;;;;;5012087;28;20026;-76
2023/09/07 00:14:10;;;;;;;45.63;21.05;;;11.30;99.90;;;;;;5014111;28;20022;-76
2023/09/07 00:16:37;;;;;;;51.00;23.13;;;11.30;99.90;;;;;;5041537;28;20041;-78
2023/09/07 00:19:04;;;;;;;63.70;30.33;;;11.30;99.90;;;;;;5015971;28;20476;-76
2023/09/07 00:21:29;;;;;;;54.25;25.73;;;11.30;99.90;;;;;;5028822;28;20017;-76
2023/09/07 00:23:55;;;;;;;51.83;23.75;;;11.30;99.90;;;;;;5029855;28;20029;-79
2023/09/07 00:26:21;;;;;;;57.13;25.17;;;11.30;99.90;;;;;;5044574;28;20025;-75
2023/09/07 00:28:46;;;;;;;66.15;26.77;;;11.30;99.90;;;;;;5030017;28;20025;-76
2023/09/07 00:31:12;;;;;;;67.40;28.05;;;11.20;99.90;;;;;;5042981;28;20025;-78
2023/09/07 00:33:38;;;;;;;74.68;29.13;;;11.20;99.90;;;;;;5030199;28;20044;-75
2023/09/07 00:36:04;;;;;;;80.07;34.05;;;11.20;99.90;;;;;;5042847;28;20037;-78
2023/09/07 00:38:29;;;;;;;67.63;32.13;;;11.20;99.90;;;;;;5030250;28;20040;-79
2023/09/07 00:40:55;;;;;;;92.72;36.17;;;11.10;99.90;;;;;;5034554;28;20355;-75
2023/09/07 00:43:21;;;;;;;97.22;40.67;;;11.10;99.90;;;;;;5038400;28;20510;-76
2023/09/07 00:45:46;;;;;;;102.07;39.58;;;11.10;99.90;;;;;;5021808;28;20030;-75
2023/09/07 00:48:14;;;;;;;101.80;41.80;;;11.10;99.90;;;;;;5029082;28;20382;-75
2023/09/07 00:50:41;;;;;;;93.53;39.95;;;11.10;99.90;;;;;;5029172;28;20021;-75
2023/09/07 00:53:07;;;;;;;98.35;38.53;;;11.10;99.90;;;;;;5028735;28;20410;-78
2023/09/07 00:55:34;;;;;;;80.78;37.88;;;11.10;99.90;;;;;;5030499;28;20030;-75
2023/09/07 00:58:03;;;;;;;81.90;34.60;;;11.00;99.90;;;;;;5029907;28;20531;-78
2023/09/07 01:00:29;;;;;;;85.40;33.97;;;11.00;99.90;;;;;;5030557;28;20486;-76
2023/09/07 01:02:55;;;;;;;75.38;32.75;;;10.90;99.90;;;;;;5029424;28;20021;-78
2023/09/07 01:05:29;;;;;;;80.32;35.83;;;10.90;99.90;;;;;;5030020;28;20014;-76
2023/09/07 01:08:03;;;;;;;88.47;37.25;;;10.90;99.90;;;;;;5018095;28;20026;-79
2023/09/07 01:10:29;;;;;;;84.15;36.83;;;10.90;99.90;;;;;;5029930;28;20033;-75
2023/09/07 01:12:54;;;;;;;70.95;30.95;;;10.80;99.90;;;;;;5029962;28;20022;-78
2023/09/07 01:15:20;;;;;;;90.72;34.75;;;10.80;99.90;;;;;;5042626;28;20029;-79
2023/09/07 01:17:46;;;;;;;88.28;37.75;;;10.80;99.90;;;;;;5022078;28;20403;-76
2023/09/07 01:20:13;;;;;;;104.38;45.10;;;10.80;99.90;;;;;;5024667;28;20022;-79
2023/09/07 01:22:40;;;;;;;72.57;32.08;;;10.80;99.90;;;;;;5028469;28;20105;-75
2023/09/07 01:25:07;;;;;;;88.03;39.28;;;10.80;99.90;;;;;;5029950;28;20356;-75
2023/09/07 01:27:33;;;;;;;80.55;37.47;;;10.80;99.90;;;;;;5039401;28;20364;-79
2023/09/07 01:29:59;;;;;;;87.75;37.08;;;10.80;99.90;;;;;;5032588;28;20022;-77
2023/09/07 01:32:27;;;;;;;71.22;33.08;;;10.80;99.90;;;;;;5041950;28;20031;-78
2023/09/07 01:34:56;;;;;;;72.20;32.50;;;10.70;99.90;;;;;;5037789;28;20021;-78
2023/09/07 01:37:22;;;;;;;56.30;26.50;;;10.80;99.90;;;;;;5050703;28;20052;-78
2023/09/07 01:39:48;;;;;;;52.30;27.85;;;10.80;99.90;;;;;;5050776;28;20028;-75
2023/09/07 01:42:14;;;;;;;52.60;27.38;;;10.70;99.90;;;;;;5052569;28;20052;-79
2023/09/07 01:44:40;;;;;;;58.20;30.13;;;10.70;99.90;;;;;;5038982;28;20057;-78
2023/09/07 01:47:05;;;;;;;63.42;30.10;;;10.70;99.90;;;;;;5043064;28;20033;-78
2023/09/07 01:49:31;;;;;;;70.05;28.60;;;10.70;99.90;;;;;;5048156;28;20039;-75
2023/09/07 01:51:57;;;;;;;60.72;27.77;;;10.70;99.90;;;;;;5042960;28;20028;-76
2023/09/07 01:54:22;;;;;;;50.90;24.25;;;10.60;99.90;;;;;;5035401;28;21584;-76
2023/09/07 01:56:48;;;;;;;49.15;23.73;;;10.60;99.90;;;;;;5042158;28;20128;-78
2023/09/07 01:59:13;;;;;;;49.75;25.13;;;10.60;99.90;;;;;;5047105;28;20025;-76
2023/09/07 02:01:40;;;;;;;42.95;21.88;;;10.50;99.90;;;;;;5041796;28;20505;-76
2023/09/07 02:04:05;;;;;;;47.08;23.50;;;10.50;99.90;;;;;;5045420;28;20018;-76
2023/09/07 02:06:31;;;;;;;51.80;22.67;;;10.50;99.90;;;;;;5042181;28;20032;-75
2023/09/07 02:08:57;;;;;;;40.53;20.70;;;10.50;99.90;;;;;;5034637;28;20386;-79
2023/09/07 02:11:23;;;;;;;34.38;18.98;;;10.50;99.90;;;;;;5040661;28;20059;-76
2023/09/07 02:13:48;;;;;;;35.65;19.10;;;10.50;99.90;;;;;;5050856;28;20104;-78
2023/09/07 02:16:14;;;;;;;38.72;19.35;;;10.50;99.90;;;;;;5042330;28;20555;-76
2023/09/07 02:18:45;;;;;;;35.00;19.65;;;10.40;99.90;;;;;;5018777;28;20060;-76
2023/09/07 02:21:11;;;;;;;32.55;18.13;;;10.40;99.90;;;;;;5031244;28;20018;-76
2023/09/07 02:23:37;;;;;;;38.92;20.70;;;10.40;99.90;;;;;;5031525;28;20033;-76
2023/09/07 02:26:03;;;;;;;32.33;18.02;;;10.40;99.90;;;;;;5032300;28;20025;-76
2023/09/07 02:28:29;;;;;;;29.77;17.65;;;10.40;99.90;;;;;;5032511;28;20102;-76
2023/09/07 02:31:02;;;;;;;38.15;17.20;;;10.30;99.90;;;;;;5032301;28;20055;-78
2023/09/07 02:33:28;;;;;;;24.17;15.50;;;10.30;99.90;;;;;;5031112;28;20488;-75
2023/09/07 02:35:53;;;;;;;26.77;16.20;;;10.30;99.90;;;;;;5030843;28;20040;-75
2023/09/07 02:38:19;;;;;;;26.40;15.20;;;10.30;99.90;;;;;;5031874;28;20045;-77
2023/09/07 02:40:45;;;;;;;28.35;15.80;;;10.30;99.90;;;;;;5031518;28;20021;-79
2023/09/07 02:43:11;;;;;;;22.63;15.05;;;10.30;99.90;;;;;;5030819;28;20022;-79
2023/09/07 02:45:38;;;;;;;23.05;12.75;;;10.30;99.90;;;;;;5031119;28;20053;-78
2023/09/07 02:48:04;;;;;;;22.13;13.98;;;10.30;99.90;;;;;;5030802;28;20017;-78
2023/09/07 02:50:33;;;;;;;22.90;13.80;;;10.30;99.90;;;;;;5032255;28;20036;-75
2023/09/07 02:53:00;;;;;;;22.27;13.82;;;10.30;99.90;;;;;;5031856;28;20017;-77
2023/09/07 02:55:26;;;;;;;20.98;13.57;;;10.30;99.90;;;;;;5030836;28;20535;-75
2023/09/07 02:57:51;;;;;;;21.70;14.43;;;10.30;99.90;;;;;;5020275;28;20033;-79
2023/09/07 03:00:17;;;;;;;22.17;14.23;;;10.30;99.90;;;;;;5031803;28;20025;-75
2023/09/07 03:02:43;;;;;;;21.98;14.30;;;10.30;99.90;;;;;;5033599;28;20493;-76
2023/09/07 03:05:09;;;;;;;22.73;13.52;;;10.30;99.90;;;;;;5030158;28;20058;-76
2023/09/07 03:07:35;;;;;;;21.42;13.30;;;10.30;99.90;;;;;;5039589;28;20097;-79
2023/09/07 03:10:01;;;;;;;18.02;12.70;;;10.30;99.90;;;;;;5031788;28;20360;-76
2023/09/07 03:12:27;;;;;;;19.83;12.00;;;10.30;99.90;;;;;;5042529;28;20525;-79
2023/09/07 03:14:53;;;;;;;24.42;13.60;;;10.30;99.90;;;;;;5042048;28;20086;-79
2023/09/07 03:17:20;;;;;;;21.20;13.02;;;10.30;99.90;;;;;;5035097;28;20104;-76
2023/09/07 03:19:46;;;;;;;18.63;13.77;;;10.20;99.90;;;;;;5022182;28;20638;-79
2023/09/07 03:22:12;;;;;;;21.60;13.70;;;10.30;99.90;;;;;;5029897;28;20020;-79
2023/09/07 03:24:38;;;;;;;23.90;14.65;;;10.20;99.90;;;;;;5030358;28;20419;-76
2023/09/07 03:27:05;;;;;;;21.88;14.38;;;10.20;99.90;;;;;;5029882;28;20052;-79
2023/09/07 03:29:33;;;;;;;17.17;13.48;;;10.20;99.90;;;;;;5030005;28;20030;-76
2023/09/07 03:32:00;;;;;;;17.88;12.32;;;10.10;99.90;;;;;;5035897;28;20021;-76
2023/09/07 03:34:25;;;;;;;20.85;12.77;;;10.10;99.90;;;;;;5039663;28;20029;-78
2023/09/07 03:36:51;;;;;;;22.85;12.80;;;10.10;99.90;;;;;;5030981;28;20067;-79
2023/09/07 03:39:18;;;;;;;17.48;12.68;;;10.10;99.90;;;;;;5031105;28;20437;-78
2023/09/07 03:41:44;;;;;;;20.33;12.23;;;10.10;99.90;;;;;;5048947;28;20017;-79
2023/09/07 03:44:10;;;;;;;18.65;12.35;;;10.10;99.90;;;;;;5050739;28;20032;-79
2023/09/07 03:46:36;;;;;;;15.23;11.82;;;10.10;99.90;;;;;;5031061;28;20159;-76
2023/09/07 03:49:02;;;;;;;17.05;12.43;;;10.10;99.90;;;;;;5042636;28;20502;-79
2023/09/07 03:51:28;;;;;;;16.15;12.30;;;10.10;99.90;;;;;;5044008;28;20021;-75
2023/09/07 03:53:54;;;;;;;14.90;12.32;;;10.10;99.90;;;;;;5030438;28;20029;-76
2023/09/07 03:56:19;;;;;;;18.05;12.43;;;10.10;99.90;;;;;;5034519;28;20032;-76
2023/09/07 03:58:47;;;;;;;18.92;14.98;;;10.10;99.90;;;;;;5032474;28;20030;-78
2023/09/07 04:01:13;;;;;;;17.42;13.13;;;10.20;99.90;;;;;;5032345;28;20013;-79
2023/09/07 04:03:40;;;;;;;19.00;12.70;;;10.20;99.90;;;;;;5032273;28;20026;-76
2023/09/07 04:06:06;;;;;;;18.17;12.18;;;10.20;99.90;;;;;;5034027;28;20082;-78
2023/09/07 04:08:32;;;;;;;15.75;11.95;;;10.20;99.90;;;;;;5029208;28;20022;-78
2023/09/07 04:10:57;;;;;;;16.23;11.85;;;10.20;99.90;;;;;;5031570;28;20101;-76
2023/09/07 04:13:23;;;;;;;17.60;11.63;;;10.20;99.90;;;;;;5033130;28;20112;-78
2023/09/07 04:15:49;;;;;;;21.75;12.18;;;10.20;99.90;;;;;;5034014;28;20076;-76
2023/09/07 04:18:16;;;;;;;16.50;11.15;;;10.20;99.90;;;;;;5026216;28;20022;-76
2023/09/07 04:20:42;;;;;;;15.82;12.43;;;10.20;99.90;;;;;;5028095;28;20478;-79
2023/09/07 04:23:08;;;;;;;18.17;12.10;;;10.30;99.90;;;;;;5030285;28;20021;-79
2023/09/07 04:25:34;;;;;;;20.20;12.85;;;10.20;99.90;;;;;;5033873;28;20029;-78
2023/09/07 04:28:00;;;;;;;16.50;12.20;;;10.30;99.90;;;;;;5038681;28;20528;-75
2023/09/07 04:30:25;;;;;;;23.88;13.05;;;10.30;99.90;;;;;;5032577;28;20522;-77
2023/09/07 04:32:51;;;;;;;15.70;11.73;;;10.30;99.90;;;;;;5034157;28;20017;-76
2023/09/07 04:35:17;;;;;;;14.57;11.23;;;10.30;99.90;;;;;;5035100;28;20102;-79
2023/09/07 04:37:43;;;;;;;21.33;12.02;;;10.30;99.90;;;;;;5026916;28;20079;-79
2023/09/07 04:40:09;;;;;;;26.52;14.23;;;10.40;99.90;;;;;;5028498;28;20032;-76
2023/09/07 04:42:35;;;;;;;29.00;12.30;;;10.40;99.90;;;;;;5027115;28;20025;-79
2023/09/07 04:45:01;;;;;;;16.17;12.13;;;10.50;99.90;;;;;;5025819;28;20474;-79
2023/09/07 04:47:27;;;;;;;16.23;11.15;;;10.50;99.90;;;;;;5030792;28;20021;-79
2023/09/07 04:49:52;;;;;;;16.60;11.52;;;10.60;99.90;;;;;;5031716;28;20028;-79
2023/09/07 04:52:18;;;;;;;15.20;12.00;;;10.70;99.90;;;;;;5028615;28;20026;-79
2023/09/07 04:54:44;;;;;;;18.83;12.25;;;10.70;99.90;;;;;;5030107;28;20378;-76
2023/09/07 04:57:11;;;;;;;15.35;13.20;;;10.80;99.90;;;;;;5026582;28;20034;-79
2023/09/07 04:59:36;;;;;;;18.88;12.80;;;10.90;99.90;;;;;;5027036;28;20069;-79
2023/09/07 05:02:02;;;;;;;17.40;12.32;;;11.00;99.90;;;;;;5026953;28;20029;-76
2023/09/07 05:04:28;;;;;;;18.45;11.45;;;11.10;99.90;;;;;;5026997;28;20037;-76
2023/09/07 05:06:56;;;;;;;15.88;12.13;;;11.20;99.90;;;;;;5028934;28;20037;-76
2023/09/07 05:09:23;;;;;;;16.90;12.02;;;11.40;99.90;;;;;;5024605;28;20113;-79
2023/09/07 05:11:49;;;;;;;22.00;12.48;;;11.50;99.90;;;;;;5033931;28;20028;-79
2023/09/07 05:14:14;;;;;;;18.05;12.23;;;11.60;99.90;;;;;;5029915;28;20092;-78
2023/09/07 05:16:43;;;;;;;19.25;12.10;;;11.80;99.90;;;;;;5029413;28;20465;-79
2023/09/07 05:19:09;;;;;;;20.27;12.48;;;11.90;99.90;;;;;;5016104;28;20022;-79
2023/09/07 05:21:35;;;;;;;16.38;11.57;;;12.10;99.90;;;;;;5029191;28;20037;-76
2023/09/07 05:24:00;;;;;;;14.73;10.95;;;12.30;99.90;;;;;;5029459;28;20090;-79
2023/09/07 05:26:26;;;;;;;15.95;10.70;;;12.50;99.90;;;;;;5030712;28;20023;-76
2023/09/07 05:28:52;;;;;;;15.48;10.60;;;12.60;99.90;;;;;;5029565;28;20040;-76
2023/09/07 05:31:17;;;;;;;14.25;11.05;;;12.80;99.90;;;;;;5031524;28;20025;-77
2023/09/07 05:33:43;;;;;;;12.43;8.85;;;13.00;99.90;;;;;;5028085;28;20014;-76
2023/09/07 05:36:09;;;;;;;14.73;9.95;;;13.30;99.90;;;;;;5029082;28;20034;-80
2023/09/07 05:38:35;;;;;;;14.82;10.00;;;13.60;99.90;;;;;;5028151;28;20037;-76
2023/09/07 05:41:00;;;;;;;14.05;10.27;;;13.80;99.90;;;;;;5029484;28;20025;-80
2023/09/07 05:43:26;;;;;;;13.65;10.32;;;14.10;99.90;;;;;;5018049;28;20406;-80
2023/09/07 05:45:52;;;;;;;13.15;8.68;;;14.30;99.90;;;;;;5030882;28;20036;-80
2023/09/07 05:48:18;;;;;;;15.05;10.35;;;14.70;99.90;;;;;;5028978;28;20498;-76
2023/09/07 05:50:44;;;;;;;10.60;8.20;;;14.90;99.90;;;;;;5033641;28;20423;-80
2023/09/07 05:53:10;;;;;;;15.13;9.02;;;15.20;99.90;;;;;;5033857;28;20017;-77
2023/09/07 05:55:36;;;;;;;11.90;8.32;;;15.50;99.90;;;;;;5028093;28;20100;-76
2023/09/07 05:58:05;;;;;;;10.48;7.28;;;15.70;99.90;;;;;;5032886;28;20033;-77
2023/09/07 06:00:31;;;;;;;11.48;7.13;;;16.00;99.90;;;;;;5033157;28;20102;-77
2023/09/07 06:02:56;;;;;;;13.02;8.10;;;16.30;99.90;;;;;;5037129;28;20462;-80
2023/09/07 06:05:22;;;;;;;13.85;8.25;;;16.50;99.90;;;;;;5026271;28;20051;-76
2023/09/07 06:07:48;;;;;;;10.43;7.55;;;16.70;99.90;;;;;;5027191;28;20482;-76
2023/09/07 06:10:14;;;;;;;12.68;8.20;;;16.90;99.90;;;;;;5029322;28;20029;-77
2023/09/07 06:12:40;;;;;;;11.23;8.32;;;17.10;99.90;;;;;;5028342;28;20032;-77
2023/09/07 06:15:07;;;;;;;10.73;7.88;;;17.30;99.90;;;;;;5030015;28;20459;-77
2023/09/07 06:17:33;;;;;;;10.55;7.53;;;17.50;99.90;;;;;;5060517;27;20031;-80
2023/09/07 06:19:58;;;;;;;9.98;7.13;;;17.60;99.90;;;;;;5066372;27;20360;-80
2023/09/07 06:22:24;;;;;;;9.70;7.57;;;17.80;99.90;;;;;;5029018;28;20474;-80
2023/09/07 06:24:50;;;;;;;9.80;7.05;;;17.90;99.90;;;;;;5028755;28;20026;-80
2023/09/07 06:27:16;;;;;;;11.95;7.07;;;18.10;97.90;;;;;;5032789;28;20021;-77
2023/09/07 06:29:41;;;;;;;9.57;6.65;;;18.20;95.70;;;;;;5030480;28;20052;-77
2023/09/07 06:32:07;;;;;;;8.10;6.00;;;18.40;94.30;;;;;;5031117;28;20033;-77
2023/09/07 06:34:33;;;;;;;10.52;6.88;;;18.50;91.40;;;;;;5023783;28;20037;-77
2023/09/07 06:36:58;;;;;;;8.82;6.57;;;18.60;91.20;;;;;;5033586;28;20065;-80
2023/09/07 06:39:24;;;;;;;8.00;6.60;;;18.80;89.90;;;;;;5029795;28;20026;-80
2023/09/07 06:41:50;;;;;;;8.07;6.47;;;18.90;89.50;;;;;;5025687;28;20018;-79
2023/09/07 06:44:15;;;;;;;10.40;6.03;;;18.90;87.40;;;;;;5030008;28;20086;-75
2023/09/07 06:46:41;;;;;;;10.52;7.10;;;19.00;87.60;;;;;;5033439;28;20030;-79
2023/09/07 06:49:07;;;;;;;12.10;6.57;;;19.20;88.50;;;;;;5020619;28;20030;-81
2023/09/07 06:51:33;;;;;;;10.10;5.70;;;19.30;84.20;;;;;;5036764;28;20090;-80
2023/09/07 06:53:59;;;;;;;9.85;5.78;;;19.50;85.80;;;;;;5029754;28;20072;-80
2023/09/07 06:56:26;;;;;;;10.02;6.18;;;19.60;83.20;;;;;;5033047;28;20418;-76
2023/09/07 06:58:52;;;;;;;7.13;5.97;;;19.70;80.60;;;;;;5041262;28;20021;-76
2023/09/07 07:01:18;;;;;;;9.98;6.05;;;19.90;81.70;;;;;;5037608;28;20391;-76
2023/09/07 07:03:44;;;;;;;6.90;5.47;;;19.90;81.90;;;;;;5029968;28;20021;-76
2023/09/07 07:06:09;;;;;;;8.38;5.93;;;20.10;80.40;;;;;;5044685;28;20029;-80
2023/09/07 07:08:35;;;;;;;8.57;6.18;;;20.10;79.10;;;;;;5032896;28;20088;-80
2023/09/07 07:11:01;;;;;;;9.88;6.13;;;20.20;78.70;;;;;;5044655;28;20475;-76
2023/09/07 07:13:27;;;;;;;7.07;5.20;;;20.30;80.70;;;;;;5032746;28;20025;-77
2023/09/07 07:15:52;;;;;;;7.35;5.13;;;20.30;75.80;;;;;;5034402;28;20493;-76
2023/09/07 07:18:18;;;;;;;7.30;5.68;;;20.20;74.90;;;;;;5026970;28;20056;-76
2023/09/07 07:20:45;;;;;;;6.85;5.20;;;20.30;75.30;;;;;;5047106;28;20025;-80
2023/09/07 07:23:12;;;;;;;6.35;5.30;;;20.30;74.30;;;;;;5033799;28;20057;-80
2023/09/07 07:25:38;;;;;;;8.38;6.30;;;20.50;74.20;;;;;;5029996;28;20032;-80
2023/09/07 07:28:07;;;;;;;6.15;4.63;;;20.50;72.30;;;;;;5039176;28;20025;-80
2023/09/07 07:30:37;;;;;;;7.47;5.57;;;20.60;72.30;;;;;;5041080;28;20082;-80
2023/09/07 07:33:04;;;;;;;8.57;5.38;;;20.70;72.20;;;;;;5035559;28;20026;-80
2023/09/07 07:35:34;;;;;;;8.27;5.03;;;20.80;72.60;;;;;;5030475;28;20394;-76
2023/09/07 07:38:00;;;;;;;5.93;5.25;;;20.90;71.20;;;;;;5031197;28;20080;-76
2023/09/07 07:40:26;;;;;;;6.13;4.78;;;21.00;70.20;;;;;;5030459;28;20045;-79
2023/09/07 07:42:53;;;;;;;6.40;5.10;;;21.00;69.70;;;;;;5031367;28;20021;-76
2023/09/07 07:45:22;;;;;;;7.22;5.38;;;21.20;69.80;;;;;;5031446;28;20066;-76
2023/09/07 07:47:51;;;;;;;8.70;5.22;;;21.30;70.10;;;;;;5029975;28;20021;-80
2023/09/07 07:50:17;;;;;;;6.43;4.90;;;21.40;69.70;;;;;;5031629;28;20025;-80
2023/09/07 07:52:43;;;;;;;6.30;5.45;;;21.30;68.90;;;;;;5029667;28;20490;-76
2023/09/07 07:55:30;;;;;;;7.60;5.57;;;21.40;70.10;;;;;;5030349;28;20033;-80
2023/09/07 07:58:01;;;;;;;7.00;5.05;;;21.50;68.90;;;;;;5032174;28;20037;-76
2023/09/07 08:00:27;;;;;;;5.35;4.63;;;21.60;69.30;;;;;;5029717;28;20032;-81
2023/09/07 08:02:53;;;;;;;5.65;4.68;;;21.60;67.50;;;;;;5030983;28;20022;-76
2023/09/07 08:05:18;;;;;;;7.15;4.85;;;21.60;67.70;;;;;;5031954;28;20025;-76
2023/09/07 08:07:44;;;;;;;11.25;4.90;;;21.50;68.00;;;;;;5029639;28;20486;-81
2023/09/07 08:10:09;;;;;;;5.97;5.28;;;21.60;68.10;;;;;;5032349;28;20021;-81
2023/09/07 08:12:35;;;;;;;6.10;5.07;;;21.60;68.00;;;;;;5032043;28;20025;-76
2023/09/07 08:15:01;;;;;;;7.45;4.68;;;21.80;68.00;;;;;;5030872;28;20031;-81
2023/09/07 08:17:26;;;;;;;9.90;5.25;;;21.80;67.60;;;;;;5024446;28;20045;-80
2023/09/07 08:19:56;;;;;;;6.43;4.63;;;22.00;68.20;;;;;;5023171;28;20026;-76
2023/09/07 08:22:22;;;;;;;7.45;5.57;;;21.90;67.00;;;;;;5024345;28;20395;-76
2023/09/07 08:24:48;;;;;;;8.60;5.38;;;21.90;66.40;;;;;;5035594;28;20436;-76
2023/09/07 08:27:18;;;;;;;5.45;4.82;;;22.00;67.80;;;;;;5030693;28;20515;-81
2023/09/07 08:29:48;;;;;;;7.32;4.88;;;21.80;65.80;;;;;;5030350;28;20022;-76
2023/09/07 08:32:14;;;;;;;6.32;4.78;;;22.00;66.80;;;;;;5030601;28;20025;-80
2023/09/07 08:34:41;;;;;;;10.27;5.57;;;22.10;66.70;;;;;;5030612;28;20040;-80
2023/09/07 08:37:08;;;;;;;14.85;6.03;;;22.10;67.00;;;;;;5029066;28;20056;-81
2023/09/07 08:39:34;;;;;;;6.70;5.60;;;22.30;66.70;;;;;;5028764;28;20029;-76
2023/09/07 08:42:00;;;;;;;8.40;4.53;;;22.30;66.10;;;;;;5021425;28;20382;-81
2023/09/07 08:44:26;;;;;;;7.05;4.88;;;22.40;66.60;;;;;;5026722;28;20022;-81
2023/09/07 08:46:53;;;;;;;6.13;5.05;;;22.60;66.70;;;;;;5030542;28;20018;-76
2023/09/07 08:49:19;;;;;;;8.18;5.28;;;22.60;65.40;;;;;;5029173;28;20029;-76
2023/09/07 08:51:45;;;;;;;7.72;5.50;;;22.70;65.60;;;;;;5030381;28;20025;-82
2023/09/07 08:54:12;;;;;;;6.65;5.55;;;22.70;66.00;;;;;;5029119;28;20021;-76
2023/09/07 08:56:38;;;;;;;11.73;5.97;;;22.70;65.10;;;;;;5025809;28;20037;-81
2023/09/07 08:59:04;;;;;;;7.38;5.43;;;22.80;65.60;;;;;;5026524;28;20025;-81
2023/09/07 09:01:31;;;;;;;6.20;4.72;;;22.90;65.10;;;;;;5030548;28;20070;-77
2023/09/07 09:03:58;;;;;;;8.45;5.32;;;22.90;64.30;;;;;;5028791;28;20052;-76
2023/09/07 09:06:24;;;;;;;7.22;5.30;;;22.90;63.80;;;;;;5029494;28;20021;-81
2023/09/07 09:08:57;;;;;;;8.50;5.50;;;22.80;64.50;;;;;;5029969;28;20065;-76
2023/09/07 09:11:24;;;;;;;5.97;5.10;;;22.80;63.90;;;;;;5031258;28;20025;-76
2023/09/07 09:13:52;;;;;;;11.85;5.65;;;22.90;64.30;;;;;;5031728;28;20041;-76
2023/09/07 09:16:18;;;;;;;7.07;4.88;;;23.00;64.20;;;;;;5029423;28;20574;-81
2023/09/07 09:18:56;;;;;;;9.50;5.75;;;22.90;64.70;;;;;;5016770;28;20140;-76
2023/09/07 09:21:24;;;;;;;5.68;5.10;;;23.00;63.80;;;;;;5028791;28;20029;-77
2023/09/07 09:23:55;;;;;;;7.57;5.13;;;23.10;64.10;;;;;;5029714;28;20073;-76
2023/09/07 09:26:23;;;;;;;8.00;5.00;;;23.20;63.80;;;;;;5030048;28;20025;-76
2023/09/07 09:28:50;;;;;;;5.85;4.72;;;23.20;64.10;;;;;;5029518;28;20017;-76
2023/09/07 09:31:17;;;;;;;7.00;4.40;;;23.30;61.80;;;;;;5030158;28;20473;-82
2023/09/07 09:33:47;;;;;;;5.25;4.47;;;23.30;62.40;;;;;;5029827;28;20389;-76
2023/09/07 09:36:13;;;;;;;6.95;5.00;;;23.40;61.00;;;;;;5029789;28;20104;-76
2023/09/07 09:38:39;;;;;;;4.88;4.20;;;23.30;60.20;;;;;;5029742;28;20382;-81
2023/09/07 09:41:06;;;;;;;6.88;4.97;;;23.30;61.20;;;;;;5029782;28;20029;-81
2023/09/07 09:43:31;;;;;;;7.13;4.55;;;23.50;60.70;;;;;;5029911;28;20034;-81
2023/09/07 09:45:59;;;;;;;7.82;4.72;;;23.50;60.50;;;;;;5029694;28;20276;-76
2023/09/07 09:48:27;;;;;;;5.80;4.35;;;23.50;60.40;;;;;;5028637;28;20375;-81
2023/09/07 09:50:53;;;;;;;4.85;4.35;;;23.60;60.60;;;;;;5029856;28;20026;-77
2023/09/07 09:53:20;;;;;;;5.53;4.70;;;23.60;60.70;;;;;;5033034;28;20501;-76
2023/09/07 09:55:52;;;;;;;6.85;4.57;;;23.70;61.20;;;;;;5031898;28;20025;-81
2023/09/07 09:58:18;;;;;;;5.28;4.53;;;23.70;60.60;;;;;;5031688;28;20526;-77
2023/09/07 10:00:49;;;;;;;7.78;4.85;;;23.70;60.90;;;;;;5032187;28;20105;-80
2023/09/07 10:03:20;;;;;;;6.40;4.93;;;23.80;61.10;;;;;;5031479;28;20070;-80
2023/09/07 10:05:48;;;;;;;5.10;4.32;;;23.80;60.50;;;;;;5033135;28;20030;-81
2023/09/07 10:08:15;;;;;;;6.32;4.70;;;23.80;60.70;;;;;;5033101;28;20018;-81
2023/09/07 10:10:43;;;;;;;5.32;4.82;;;23.80;61.00;;;;;;5032899;28;20013;-76
2023/09/07 10:13:08;;;;;;;5.00;4.28;;;23.80;60.60;;;;;;5031529;28;20099;-76
2023/09/07 10:15:38;;;;;;;8.70;5.00;;;24.00;61.10;;;;;;5032747;28;20025;-81
2023/09/07 10:18:15;;;;;;;5.50;5.00;;;24.10;61.20;;;;;;5022820;28;20034;-81
2023/09/07 10:20:58;;;;;;;5.85;4.38;;;24.10;60.40;;;;;;5043525;28;20057;-77
2023/09/07 10:23:39;;;;;;;8.52;4.70;;;24.20;61.30;;;;;;5032638;28;20038;-76
2023/09/07 10:26:05;;;;;;;4.95;4.30;;;24.20;59.60;;;;;;5031466;28;20461;-81
2023/09/07 10:28:32;;;;;;;5.72;3.88;;;24.20;59.30;;;;;;5031246;28;20109;-81
2023/09/07 10:31:03;;;;;;;6.18;3.83;;;24.20;59.50;;;;;;5031775;28;20037;-81
2023/09/07 10:33:29;;;;;;;6.80;4.60;;;24.30;60.40;;;;;;5032716;28;20057;-81
2023/09/07 10:35:56;;;;;;;5.38;4.45;;;24.20;59.80;;;;;;5032553;28;20424;-81
2023/09/07 10:38:22;;;;;;;4.50;4.10;;;24.20;59.80;;;;;;5032428;28;20056;-81
2023/09/07 10:40:54;;;;;;;5.28;4.40;;;24.20;58.70;;;;;;5032589;28;20022;-81
2023/09/07 10:43:21;;;;;;;5.93;3.90;;;24.10;58.90;;;;;;5030971;28;20127;-77
2023/09/07 10:45:47;;;;;;;7.40;4.40;;;24.00;58.90;;;;;;5044771;28;20025;-76
2023/09/07 10:48:13;;;;;;;6.45;4.88;;;24.10;60.10;;;;;;5032528;28;20382;-81
2023/09/07 10:50:46;;;;;;;5.78;5.03;;;24.20;59.80;;;;;;5031054;28;20028;-81
2023/09/07 10:53:13;;;;;;;6.13;4.22;;;24.20;59.40;;;;;;5019096;28;20020;-76
2023/09/07 10:55:40;;;;;;;5.22;4.72;;;24.10;58.50;;;;;;5032062;28;20017;-76
2023/09/07 10:58:08;;;;;;;5.82;4.32;;;24.00;57.80;;;;;;5032177;28;20074;-80
2023/09/07 11:00:34;;;;;;;6.25;5.25;;;24.00;59.20;;;;;;5032435;28;20029;-78
2023/09/07 11:03:08;;;;;;;5.97;4.07;;;24.00;59.30;;;;;;5032225;28;20082;-82
2023/09/07 11:05:36;;;;;;;6.68;5.00;;;23.90;57.80;;;;;;5030692;28;20067;-78
2023/09/07 11:08:04;;;;;;;6.38;4.38;;;24.00;58.70;;;;;;5031714;28;20051;-77
2023/09/07 11:10:33;;;;;;;9.50;4.55;;;24.20;59.40;;;;;;5031214;28;20486;-78
2023/09/07 11:13:02;;;;;;;7.43;4.35;;;24.00;57.90;;;;;;5031009;28;20074;-82
2023/09/07 11:15:29;;;;;;;6.85;4.35;;;24.00;57.90;;;;;;5031702;28;20053;-83
2023/09/07 11:17:55;;;;;;;6.47;4.25;;;23.90;58.20;;;;;;5022850;28;20064;-82
2023/09/07 11:20:22;;;;;;;6.45;4.70;;;24.00;57.90;;;;;;5026706;28;20065;-83
2023/09/07 11:22:48;;;;;;;6.80;4.35;;;24.00;58.10;;;;;;5031948;28;20029;-83
2023/09/07 11:25:15;;;;;;;5.68;4.65;;;24.10;58.40;;;;;;5031756;28;20017;-83
2023/09/07 11:27:41;;;;;;;6.22;4.10;;;24.20;58.70;;;;;;5031741;28;20029;-82
2023/09/07 11:30:08;;;;;;;4.47;4.05;;;24.30;58.80;;;;;;5031783;28;20021;-78
2023/09/07 11:32:37;;;;;;;6.97;3.95;;;24.40;58.70;;;;;;5031627;28;20070;-83
2023/09/07 11:35:07;;;;;;;4.50;4.05;;;24.30;56.70;;;;;;5017886;28;20014;-83
2023/09/07 11:37:33;;;;;;;6.18;4.13;;;24.40;56.80;;;;;;5024936;27;20049;-82
2023/09/07 11:39:58;;;;;;;6.68;4.55;;;24.10;56.90;;;;;;5029587;28;20036;-82
2023/09/07 11:42:24;;;;;;;6.90;5.13;;;24.20;58.10;;;;;;5029034;28;20033;-82
2023/09/07 11:44:50;;;;;;;4.78;3.63;;;24.30;58.60;;;;;;5029530;28;20509;-82
2023/09/07 11:47:16;;;;;;;6.13;4.07;;;24.20;57.50;;;;;;5029405;28;20049;-82
2023/09/07 11:49:41;;;;;;;10.52;4.20;;;24.10;57.50;;;;;;5028569;28;20036;-82
2023/09/07 11:52:07;;;;;;;6.05;4.07;;;24.20;57.70;;;;;;5028951;28;20017;-82
2023/09/07 11:54:33;;;;;;;6.07;4.25;;;24.10;57.60;;;;;;5027377;28;20049;-82
2023/09/07 11:56:59;;;;;;;6.25;4.60;;;24.30;57.80;;;;;;5028960;28;20041;-82
2023/09/07 11:59:24;;;;;;;8.57;4.55;;;24.30;57.00;;;;;;5039401;28;20513;-82
2023/09/07 12:01:50;;;;;;;4.65;3.78;;;24.40;57.70;;;;;;5033890;28;20078;-83
2023/09/07 12:04:16;;;;;;;4.07;3.67;;;24.50;57.50;;;;;;5029460;28;20033;-83
2023/09/07 12:06:42;;;;;;;5.40;3.83;;;24.60;58.20;;;;;;5034737;28;20425;-83
2023/09/07 12:09:09;;;;;;;9.15;5.00;;;24.60;58.30;;;;;;5033614;28;20030;-82
2023/09/07 12:11:35;;;;;;;8.88;4.57;;;24.70;57.90;;;;;;5030838;28;20070;-83
2023/09/07 12:14:01;;;;;;;8.25;4.13;;;24.60;56.30;;;;;;5026500;28;20037;-81
2023/09/07 12:16:28;;;;;;;4.10;3.70;;;24.60;57.00;;;;;;5031534;28;20486;-81
2023/09/07 12:18:54;;;;;;;4.35;3.95;;;24.60;57.70;;;;;;5029842;28;20042;-81
2023/09/07 12:21:20;;;;;;;8.05;3.78;;;24.60;57.50;;;;;;5027566;28;20025;-82
2023/09/07 12:23:51;;;;;;;7.10;3.55;;;24.50;57.10;;;;;;5028813;28;20075;-83
2023/09/07 12:26:19;;;;;;;4.70;3.90;;;24.60;57.60;;;;;;5028152;28;20014;-83
2023/09/07 12:28:44;;;;;;;4.03;3.72;;;24.40;56.60;;;;;;5028000;28;20017;-83
2023/09/07 12:31:11;;;;;;;4.70;4.10;;;24.60;57.20;;;;;;5029267;28;20025;-82
2023/09/07 12:33:37;;;;;;;5.32;3.70;;;24.70;57.80;;;;;;5026938;28;20025;-78